Time;durP1;ratioP1;P1;durP2;ratioP2;P2;SDS_P1;SDS_P2;PMS_P1;PMS_P2;Temp;Humidity;BMP_temperature;BMP_pressure;BME280_temperature;BME280_humidity;BME280_pressure;Samples;Min_cycle;Max_cycle;Signal;HPM_P1;HPM_P2
2021/04/08 00:01:30;;;;;;;13.13;8.68;;;;;;;23.85;16.61;96855.69;5065081;28;20076;-56
2021/04/08 00:03:55;;;;;;;15.43;9.05;;;;;;;23.89;16.61;96858.66;5070405;28;20520;-62
2021/04/08 00:06:21;;;;;;;12.82;8.73;;;;;;;23.93;16.63;96856.94;5068830;28;20037;-59
2021/04/08 00:08:46;;;;;;;12.68;8.25;;;;;;;23.95;16.38;96860.19;5068635;28;20072;-57
2021/04/08 00:11:12;;;;;;;13.30;8.27;;;;;;;23.97;16.33;96856.06;5069585;28;20066;-59
2021/04/08 00:13:37;;;;;;;12.27;7.38;;;;;;;23.99;16.65;96850.28;5069157;28;20064;-59
2021/04/08 00:16:03;;;;;;;11.20;7.57;;;;;;;24.03;16.47;96851.31;5067841;28;20079;-62
2021/04/08 00:18:29;;;;;;;11.98;8.35;;;;;;;24.04;16.63;96856.50;5069116;28;20085;-61
2021/04/08 00:20:55;;;;;;;10.73;7.45;;;;;;;24.06;16.13;96853.47;5069667;28;20056;-61
2021/04/08 00:23:21;;;;;;;11.98;7.93;;;;;;;24.08;16.25;96854.00;5068723;28;20044;-60
2021/04/08 00:25:46;;;;;;;9.93;7.30;;;;;;;24.08;16.35;96854.00;5068880;28;20040;-58
2021/04/08 00:28:12;;;;;;;12.07;8.00;;;;;;;24.11;16.43;96853.41;5069251;28;20114;-56
2021/04/08 00:30:45;;;;;;;9.88;7.65;;;;;;;24.12;16.10;96849.56;5068531;28;20084;-54
2021/04/08 00:33:16;;;;;;;11.70;7.72;;;;;;;24.13;16.41;96845.72;5068600;28;20045;-59
2021/04/08 00:35:41;;;;;;;11.55;7.60;;;;;;;24.14;16.14;96852.81;5068811;28;20051;-60
2021/04/08 00:38:07;;;;;;;9.68;7.45;;;;;;;24.15;16.40;96846.22;5068651;28;20048;-55
2021/04/08 00:40:33;;;;;;;10.73;7.60;;;;;;;24.15;16.06;96848.97;5068611;28;20537;-59
2021/04/08 00:42:59;;;;;;;10.32;7.22;;;;;;;24.16;16.50;96845.13;5068676;28;20131;-57
2021/04/08 00:45:24;;;;;;;9.75;7.00;;;;;;;24.15;16.41;96840.75;5069783;28;20054;-55
2021/04/08 00:47:50;;;;;;;10.15;6.78;;;;;;;24.14;16.42;96847.34;5068598;28;20041;-56
2021/04/08 00:50:16;;;;;;;9.90;6.50;;;;;;;24.14;16.05;96850.09;5068072;28;20092;-55
2021/04/08 00:52:42;;;;;;;9.30;6.88;;;;;;;24.14;16.40;96850.09;5068587;28;20048;-53
2021/04/08 00:55:08;;;;;;;8.40;5.82;;;;;;;24.14;16.09;96850.09;5066561;28;20768;-52
2021/04/08 00:57:34;;;;;;;9.55;6.60;;;;;;;24.13;16.14;96847.63;5050279;28;20052;-55
2021/04/08 01:00:02;;;;;;;8.30;5.85;;;;;;;24.12;16.37;96849.56;5066869;28;20436;-54
2021/04/08 01:02:28;;;;;;;9.40;6.45;;;;;;;24.13;16.03;96850.38;5068143;28;20128;-59
2021/04/08 01:04:54;;;;;;;7.13;5.45;;;;;;;24.12;16.22;96848.75;5067716;28;20466;-61
2021/04/08 01:07:19;;;;;;;7.18;5.32;;;;;;;24.12;16.24;96848.75;5050384;28;20484;-58
2021/04/08 01:09:45;;;;;;;7.15;5.18;;;;;;;24.10;16.29;96860.00;5067037;28;20425;-57
2021/04/08 01:12:10;;;;;;;6.85;4.57;;;;;;;24.08;16.11;96848.53;5068317;28;20056;-59
2021/04/08 01:14:36;;;;;;;6.95;4.90;;;;;;;24.07;16.21;96849.63;5067116;28;20427;-56
2021/04/08 01:17:27;;;;;;;5.95;4.50;;;;;;;24.03;15.99;96843.94;5068059;28;20090;-59
2021/04/08 01:20:25;;;;;;;6.90;4.93;;;;;;;24.03;16.21;96849.41;5067581;28;20076;-57
2021/04/08 01:22:54;;;;;;;6.80;4.75;;;;;;;24.01;16.18;96848.91;5067413;28;20516;-60
2021/04/08 01:25:44;;;;;;;6.18;4.25;;;;;;;23.99;16.33;96850.28;5067678;28;20056;-59
2021/04/08 01:28:25;;;;;;;7.30;4.65;;;;;;;23.97;16.68;96849.75;5067562;28;21436;-59
2021/04/08 01:30:51;;;;;;;5.53;4.50;;;;;;;23.95;16.55;96846.50;5066438;28;20393;-57
2021/04/08 01:33:34;;;;;;;5.10;4.32;;;;;;;23.91;16.43;96843.56;5050060;28;20492;-58
2021/04/08 01:36:02;;;;;;;6.28;4.70;;;;;;;23.87;16.39;96834.31;5066759;28;20495;-57
2021/04/08 01:38:32;;;;;;;5.32;3.90;;;;;;;23.85;16.21;96837.34;5050264;28;20054;-64
2021/04/08 01:40:58;;;;;;;6.43;4.22;;;;;;;23.83;16.20;96836.81;5068060;28;20040;-60
2021/04/08 01:43:26;;;;;;;5.90;3.80;;;;;;;23.80;16.21;96834.69;5050458;28;20106;-56
2021/04/08 01:45:52;;;;;;;4.55;3.30;;;;;;;23.77;16.26;96840.72;5066824;28;20044;-60
2021/04/08 01:48:17;;;;;;;5.78;3.58;;;;;;;23.74;16.46;96838.56;5066847;28;20067;-55
2021/04/08 01:50:43;;;;;;;5.05;3.90;;;;;;;23.74;16.26;96840.47;5049781;28;20147;-56
2021/04/08 01:53:09;;;;;;;5.07;3.30;;;;;;;23.68;16.11;96834.25;5049392;28;20812;-54
2021/04/08 01:55:36;;;;;;;3.92;3.03;;;;;;;23.66;16.48;96831.81;5065468;28;20076;-57
2021/04/08 01:58:02;;;;;;;4.05;3.53;;;;;;;23.63;16.17;96828.84;5064894;28;20482;-60
2021/04/08 02:00:28;;;;;;;4.93;3.35;;;;;;;23.62;16.14;96827.22;5068525;28;20052;-54
2021/04/08 02:02:55;;;;;;;5.95;3.60;;;;;;;23.60;16.28;96834.91;5049887;28;20059;-54
2021/04/08 02:05:21;;;;;;;4.45;3.10;;;;;;;23.59;16.21;96841.47;5065940;28;20049;-55
2021/04/08 02:07:47;;;;;;;5.68;2.72;;;;;;;23.57;16.32;96835.47;5049336;28;20044;-55
2021/04/08 02:10:13;;;;;;;4.70;2.92;;;;;;;23.54;16.22;96838.81;5048478;28;20063;-54
2021/04/08 02:12:40;;;;;;;3.38;2.85;;;;;;;23.51;16.17;96832.00;5066193;28;20063;-57
2021/04/08 02:15:06;;;;;;;6.22;3.50;;;;;;;23.51;16.31;96839.38;5066360;28;20122;-57
2021/04/08 02:17:34;;;;;;;4.95;2.92;;;;;;;23.46;16.31;96840.25;5065585;28;20040;-61
2021/04/08 02:20:00;;;;;;;4.28;2.92;;;;;;;23.44;16.38;96842.47;5064743;28;20507;-62
2021/04/08 02:22:25;;;;;;;4.05;2.60;;;;;;;23.41;16.31;96830.19;5065596;28;20055;-61
2021/04/08 02:24:51;;;;;;;3.28;2.47;;;;;;;23.39;16.21;96839.81;5064859;28;20041;-60
2021/04/08 02:27:17;;;;;;;4.50;3.42;;;;;;;23.35;16.20;96838.75;5065191;28;20079;-59
2021/04/08 02:29:42;;;;;;;3.53;2.60;;;;;;;23.31;16.13;96830.31;5065917;28;20080;-60
2021/04/08 02:32:08;;;;;;;3.80;2.40;;;;;;;23.27;16.40;96840.19;5048325;28;20044;-62
2021/04/08 02:34:34;;;;;;;2.50;2.30;;;;;;;23.24;16.29;96836.13;5066664;28;20190;-61
2021/04/08 02:37:00;;;;;;;2.70;2.40;;;;;;;23.21;16.36;96835.88;5065142;28;20052;-62
2021/04/08 02:39:26;;;;;;;1.88;1.77;;;;;;;23.19;16.15;96829.91;5065551;28;20051;-61
2021/04/08 02:41:51;;;;;;;3.30;2.20;;;;;;;23.15;16.03;96826.13;5066125;28;20079;-63
2021/04/08 02:44:17;;;;;;;2.55;2.15;;;;;;;23.13;16.18;96831.06;5066125;28;20071;-56
2021/04/08 02:46:43;;;;;;;2.58;2.10;;;;;;;23.09;16.30;96833.56;5066279;28;20044;-62
2021/04/08 02:49:08;;;;;;;3.22;2.25;;;;;;;23.04;16.25;96831.69;5066433;28;20532;-59
2021/04/08 02:51:51;;;;;;;3.10;1.95;;;;;;;23.01;16.42;96828.72;5066386;28;20052;-60
2021/04/08 02:54:31;;;;;;;2.63;2.20;;;;;;;22.96;16.26;96826.81;5066072;28;20048;-62
2021/04/08 02:56:57;;;;;;;2.90;1.92;;;;;;;22.94;16.21;96825.47;5065904;28;20500;-57
2021/04/08 02:59:24;;;;;;;2.15;1.95;;;;;;;22.90;16.30;96818.97;5066022;28;20154;-61
2021/04/08 03:02:00;;;;;;;3.65;2.20;;;;;;;22.84;16.25;96820.91;5064656;28;20534;-61
2021/04/08 03:04:26;;;;;;;2.50;2.08;;;;;;;22.80;16.29;96815.25;5065286;28;20102;-61
2021/04/08 03:06:51;;;;;;;3.83;2.25;;;;;;;22.76;16.29;96816.09;5064255;28;20445;-61
2021/04/08 03:09:19;;;;;;;2.83;2.25;;;;;;;22.73;16.47;96817.47;5047760;28;20072;-58
2021/04/08 03:11:45;;;;;;;3.22;2.30;;;;;;;22.68;16.46;96812.06;5066230;28;20048;-61
2021/04/08 03:14:11;;;;;;;2.83;2.53;;;;;;;22.65;16.48;96808.00;5064826;28;20041;-58
2021/04/08 03:16:39;;;;;;;3.88;3.10;;;;;;;22.61;16.48;96809.69;5064460;28;20131;-60
2021/04/08 03:19:05;;;;;;;3.78;3.10;;;;;;;22.57;16.66;96811.34;5064741;28;20446;-60
2021/04/08 03:21:30;;;;;;;5.35;3.63;;;;;;;22.55;16.39;96812.75;5064571;28;20492;-59
2021/04/08 03:23:57;;;;;;;3.42;2.85;;;;;;;22.52;16.39;96805.09;5065233;28;20531;-60
2021/04/08 03:26:24;;;;;;;4.45;3.60;;;;;;;22.48;16.30;96802.13;5064195;28;20139;-58
2021/04/08 03:28:49;;;;;;;6.80;4.50;;;;;;;22.45;16.47;96802.72;5047625;28;20055;-60
2021/04/08 03:31:15;;;;;;;3.90;3.50;;;;;;;22.41;16.51;96802.47;5063842;28;20080;-58
2021/04/08 03:33:41;;;;;;;5.47;4.45;;;;;;;22.38;16.42;96797.59;5064241;28;20500;-58
2021/04/08 03:36:07;;;;;;;7.75;4.10;;;;;;;22.35;16.52;96800.06;5064211;28;20093;-60
2021/04/08 03:38:32;;;;;;;4.95;4.45;;;;;;;22.31;16.73;96799.81;5051128;28;20774;-59
2021/04/08 03:40:59;;;;;;;12.27;4.95;;;;;;;22.28;16.52;96796.84;5049356;28;20083;-61
2021/04/08 03:43:25;;;;;;;5.15;4.40;;;;;;;22.23;16.45;96798.53;5048836;28;20041;-56
2021/04/08 03:45:51;;;;;;;5.00;4.20;;;;;;;22.19;16.51;96791.97;5047931;28;20094;-58
2021/04/08 03:48:17;;;;;;;4.80;3.95;;;;;;;22.18;16.62;96793.06;5048968;28;20049;-57
2021/04/08 03:50:42;;;;;;;5.10;4.05;;;;;;;22.16;16.58;96791.72;5048071;28;20053;-56
2021/04/08 03:53:09;;;;;;;4.88;4.13;;;;;;;22.13;16.68;96795.00;5052415;28;20127;-57
2021/04/08 03:55:34;;;;;;;5.20;4.20;;;;;;;22.10;16.82;96790.94;5068587;28;20135;-55
2021/04/08 03:58:00;;;;;;;6.13;4.40;;;;;;;22.07;16.67;96788.78;5067670;28;20489;-59
2021/04/08 04:00:26;;;;;;;8.90;4.40;;;;;;;22.03;16.84;96785.00;5069339;28;20140;-57
2021/04/08 04:02:51;;;;;;;6.10;4.55;;;;;;;22.02;16.96;96786.06;5050883;28;20490;-58
2021/04/08 04:05:17;;;;;;;5.32;4.40;;;;;;;21.99;16.78;96786.66;5068051;28;20877;-57
2021/04/08 04:07:53;;;;;;;5.65;4.47;;;;;;;21.98;16.68;96791.31;5066860;28;20791;-56
2021/04/08 04:10:21;;;;;;;6.35;5.10;;;;;;;21.97;16.85;96786.13;5052800;28;20366;-54
2021/04/08 04:12:47;;;;;;;6.30;5.03;;;;;;;21.95;16.70;96788.31;5069250;28;20055;-55
2021/04/08 04:15:13;;;;;;;6.10;5.25;;;;;;;21.94;16.73;96781.22;5050805;28;20086;-52
2021/04/08 04:17:39;;;;;;;5.68;5.07;;;;;;;21.93;16.84;96785.06;5068637;28;20044;-54
2021/04/08 04:20:05;;;;;;;5.95;4.85;;;;;;;21.91;16.98;96781.78;5069018;28;20056;-53
2021/04/08 04:22:32;;;;;;;6.10;4.90;;;;;;;21.91;16.72;96776.34;5069152;28;20155;-52
2021/04/08 04:24:58;;;;;;;5.63;5.00;;;;;;;21.89;16.91;96775.81;5069287;28;20577;-60
2021/04/08 04:27:23;;;;;;;5.38;4.88;;;;;;;21.90;16.82;96774.69;5068467;28;20051;-61
2021/04/08 04:29:49;;;;;;;5.80;5.18;;;;;;;21.89;16.98;96775.81;5068203;28;20083;-59
2021/04/08 04:32:14;;;;;;;6.72;5.13;;;;;;;21.90;16.77;96774.69;5068390;28;20044;-60
2021/04/08 04:34:41;;;;;;;5.70;5.03;;;;;;;21.90;16.82;96771.97;5050486;28;20059;-57
2021/04/08 04:37:07;;;;;;;5.95;5.00;;;;;;;21.90;16.74;96772.81;5068786;28;20056;-58
2021/04/08 04:39:32;;;;;;;5.55;4.97;;;;;;;21.91;16.75;96776.34;5068829;28;20377;-56
2021/04/08 04:42:01;;;;;;;6.82;4.80;;;;;;;21.91;16.67;96770.88;5069065;28;20816;-57
2021/04/08 04:44:27;;;;;;;4.82;4.32;;;;;;;21.91;16.85;96770.88;5068316;28;20059;-55
2021/04/08 04:46:52;;;;;;;5.32;4.82;;;;;;;21.93;16.76;96774.16;5069031;28;20052;-59
2021/04/08 04:49:18;;;;;;;4.55;4.03;;;;;;;21.92;16.80;96773.34;5049068;28;20349;-59
2021/04/08 04:51:43;;;;;;;5.45;4.63;;;;;;;21.93;16.70;96768.69;5068228;28;20071;-61
2021/04/08 04:54:09;;;;;;;5.07;4.57;;;;;;;21.93;16.69;96772.22;5067802;28;20090;-61
2021/04/08 04:56:34;;;;;;;5.15;4.65;;;;;;;21.94;16.65;96771.16;5067851;28;20064;-61
2021/04/08 04:59:00;;;;;;;5.05;4.55;;;;;;;21.96;16.76;96773.56;5067128;28;20044;-59
2021/04/08 05:01:26;;;;;;;4.70;4.22;;;;;;;21.96;16.79;96773.56;5068791;28;20048;-59
2021/04/08 05:03:51;;;;;;;4.50;4.10;;;;;;;21.97;16.76;96769.75;5050581;28;20052;-58
2021/04/08 05:06:17;;;;;;;4.63;4.22;;;;;;;21.98;16.73;96774.94;5067765;28;20158;-58
2021/04/08 05:08:42;;;;;;;6.45;5.00;;;;;;;21.98;16.79;96764.03;5067659;28;20040;-64
2021/04/08 05:11:08;;;;;;;4.93;4.20;;;;;;;22.00;16.62;96770.00;5068390;28;20045;-60
2021/04/08 05:13:33;;;;;;;4.95;4.45;;;;;;;22.01;16.47;96770.81;5067182;28;20131;-59
2021/04/08 05:15:59;;;;;;;4.50;4.10;;;;;;;22.02;16.68;96766.97;5067847;28;20084;-56
2021/04/08 05:18:24;;;;;;;4.57;4.18;;;;;;;22.03;16.52;96771.34;5068902;28;20595;-59
2021/04/08 05:20:50;;;;;;;4.43;4.05;;;;;;;22.04;16.68;96770.25;5068090;28;20092;-61
2021/04/08 05:23:16;;;;;;;4.53;4.13;;;;;;;22.04;16.63;96767.50;5066211;28;20045;-59
2021/04/08 05:25:41;;;;;;;4.00;3.63;;;;;;;22.07;16.54;96777.88;5067653;28;20048;-61
2021/04/08 05:28:07;;;;;;;3.78;3.47;;;;;;;22.06;16.51;96766.13;5067458;28;20052;-62
2021/04/08 05:30:33;;;;;;;4.35;3.95;;;;;;;22.08;16.47;96765.84;5067570;28;20048;-60
2021/04/08 05:32:58;;;;;;;3.70;3.40;;;;;;;22.10;16.62;96763.66;5068045;28;20049;-61
2021/04/08 05:35:24;;;;;;;3.65;3.30;;;;;;;22.10;16.60;96765.56;5068332;28;20078;-60
2021/04/08 05:37:50;;;;;;;3.47;3.17;;;;;;;22.10;16.46;96766.38;5067664;28;20048;-59
2021/04/08 05:40:16;;;;;;;3.67;3.38;;;;;;;22.11;16.27;96765.28;5066869;28;20079;-58
2021/04/08 05:42:45;;;;;;;4.00;3.60;;;;;;;22.13;16.52;96765.00;5066447;28;20059;-59
2021/04/08 05:45:12;;;;;;;3.15;2.85;;;;;;;22.13;16.40;96765.00;5067272;28;20048;-60
2021/04/08 05:47:38;;;;;;;3.78;3.38;;;;;;;22.16;16.89;96773.44;5066593;28;20052;-56
2021/04/08 05:50:04;;;;;;;3.45;3.15;;;;;;;22.19;17.09;96775.59;5063431;28;20048;-63
2021/04/08 05:52:30;;;;;;;3.42;3.10;;;;;;;22.20;17.22;96773.69;5067876;28;20048;-62
2021/04/08 05:54:55;;;;;;;3.58;3.25;;;;;;;22.22;17.11;96772.28;5067891;28;20646;-64
2021/04/08 05:57:21;;;;;;;4.32;2.90;;;;;;;22.25;17.14;96782.69;5065741;28;20044;-63
2021/04/08 05:59:46;;;;;;;4.45;2.67;;;;;;;22.28;17.19;96777.75;5066057;28;20091;-63
2021/04/08 06:02:12;;;;;;;2.90;2.60;;;;;;;22.28;17.21;96773.09;5066785;28;20534;-63
2021/04/08 06:04:37;;;;;;;4.10;3.20;;;;;;;22.29;16.99;96780.19;5067030;28;20083;-60
2021/04/08 06:07:03;;;;;;;3.40;3.10;;;;;;;22.31;17.08;96771.72;5067110;28;20089;-63
2021/04/08 06:09:28;;;;;;;2.80;2.60;;;;;;;22.31;17.10;96777.97;5066557;28;20137;-63
2021/04/08 06:11:54;;;;;;;2.92;2.63;;;;;;;22.33;17.00;96772.25;5066352;28;20979;-61
2021/04/08 06:14:20;;;;;;;2.47;2.28;;;;;;;22.33;17.04;96778.50;5066258;28;20049;-59
2021/04/08 06:16:45;;;;;;;3.25;2.83;;;;;;;22.33;17.27;96773.03;5066035;28;20079;-62
2021/04/08 06:19:11;;;;;;;3.15;2.85;;;;;;;22.33;17.00;96783.16;5065860;28;20037;-62
2021/04/08 06:21:40;;;;;;;2.95;2.63;;;;;;;22.33;16.93;96778.50;5066382;28;20049;-62
2021/04/08 06:24:07;;;;;;;2.95;2.75;;;;;;;22.34;16.99;96785.59;5065754;28;20124;-63
2021/04/08 06:26:33;;;;;;;2.95;2.63;;;;;;;22.35;17.02;96786.41;5065312;28;20504;-62
2021/04/08 06:28:59;;;;;;;2.80;2.55;;;;;;;22.34;17.12;96784.78;5065661;28;20048;-64
2021/04/08 06:31:24;;;;;;;2.70;2.50;;;;;;;22.37;17.00;96793.22;5066758;28;20084;-64
2021/04/08 06:33:50;;;;;;;3.25;2.33;;;;;;;22.37;16.98;96789.69;5065788;28;20525;-62
2021/04/08 06:36:15;;;;;;;2.83;2.38;;;;;;;22.37;17.03;96795.13;5066268;28;20140;-59
2021/04/08 06:38:41;;;;;;;3.30;2.75;;;;;;;22.40;17.29;96800.00;5066358;28;20616;-59
2021/04/08 06:41:06;;;;;;;3.50;2.53;;;;;;;22.41;17.56;96804.38;5065643;28;20087;-60
2021/04/08 06:43:32;;;;;;;3.83;2.65;;;;;;;22.42;17.65;96804.09;5064902;28;20044;-60
2021/04/08 06:46:00;;;;;;;4.43;2.40;;;;;;;22.42;17.69;96804.09;5059294;28;20056;-57
2021/04/08 06:48:30;;;;;;;4.15;2.40;;;;;;;22.43;17.79;96800.25;5066921;28;20048;-60
2021/04/08 06:50:56;;;;;;;3.67;3.25;;;;;;;22.41;17.94;96802.47;5062680;28;20082;-63
2021/04/08 06:53:21;;;;;;;4.38;2.70;;;;;;;22.41;17.89;96802.47;5072354;28;20048;-63
2021/04/08 06:55:47;;;;;;;3.45;2.70;;;;;;;22.42;18.07;96803.28;5048033;28;20553;-58
2021/04/08 06:58:12;;;;;;;5.75;3.00;;;;;;;22.41;17.97;96804.38;5065906;28;20063;-59
2021/04/08 07:00:38;;;;;;;3.63;3.33;;;;;;;22.40;18.04;96806.31;5064499;28;20134;-59
2021/04/08 07:03:04;;;;;;;5.25;3.88;;;;;;;22.40;18.17;96805.47;5063504;28;20052;-61
2021/04/08 07:05:30;;;;;;;6.88;3.72;;;;;;;22.38;18.40;96802.22;5064486;28;20052;-57
2021/04/08 07:07:55;;;;;;;6.78;3.55;;;;;;;22.37;17.96;96806.06;5066738;28;20063;-60
2021/04/08 07:10:21;;;;;;;4.93;3.70;;;;;;;22.35;18.15;96800.88;5048128;28;20084;-55
2021/04/08 07:12:46;;;;;;;3.97;3.58;;;;;;;22.35;18.10;96802.78;5045879;28;20568;-54
2021/04/08 07:15:12;;;;;;;4.28;3.78;;;;;;;22.34;17.96;96806.59;5065243;28;20052;-56
2021/04/08 07:17:38;;;;;;;4.20;3.63;;;;;;;22.31;18.00;96801.72;5047905;28;20064;-58
2021/04/08 07:20:04;;;;;;;6.60;3.58;;;;;;;22.30;18.21;96794.66;5064520;28;20072;-58
2021/04/08 07:22:30;;;;;;;3.67;3.38;;;;;;;22.29;18.06;96801.19;5065488;28;20123;-63
2021/04/08 07:24:56;;;;;;;5.30;3.45;;;;;;;22.26;17.98;96799.84;5065960;28;20468;-58
2021/04/08 07:27:23;;;;;;;3.90;3.17;;;;;;;22.25;17.96;96798.22;5065038;28;20110;-59
2021/04/08 07:29:54;;;;;;;3.65;3.35;;;;;;;22.21;17.95;96797.97;5065624;28;20257;-58
2021/04/08 07:32:26;;;;;;;5.30;3.47;;;;;;;22.18;18.01;96806.69;5065392;28;20055;-56
2021/04/08 07:35:03;;;;;;;3.80;2.85;;;;;;;22.16;18.00;96805.34;5065699;28;20048;-53
2021/04/08 07:37:33;;;;;;;3.28;2.90;;;;;;;22.14;17.87;96808.34;5066591;28;20059;-55
2021/04/08 07:40:00;;;;;;;3.30;3.03;;;;;;;22.12;17.89;96815.22;5065858;28;20044;-63
2021/04/08 07:42:29;;;;;;;5.03;3.00;;;;;;;22.10;18.03;96810.03;5065511;28;20063;-54
2021/04/08 07:45:00;;;;;;;3.70;2.80;;;;;;;22.06;18.05;96812.50;5066381;28;20064;-53
2021/04/08 07:47:37;;;;;;;4.72;3.10;;;;;;;22.04;18.11;96802.97;5066293;28;20852;-53
2021/04/08 07:50:05;;;;;;;4.20;3.45;;;;;;;22.02;18.27;96802.44;5064349;28;20058;-62
2021/04/08 07:52:31;;;;;;;3.70;3.00;;;;;;;21.98;18.31;96804.94;5064805;28;20067;-64
2021/04/08 07:55:00;;;;;;;3.45;3.15;;;;;;;21.96;18.05;96806.28;5065907;28;20053;-64
2021/04/08 07:57:26;;;;;;;4.20;3.35;;;;;;;21.92;18.11;96806.06;5065917;28;20059;-64
2021/04/08 07:59:52;;;;;;;3.90;3.40;;;;;;;21.89;18.06;96809.34;5063333;28;20040;-63
2021/04/08 08:02:24;;;;;;;3.92;3.63;;;;;;;21.85;18.10;96809.06;5065375;28;20052;-63
2021/04/08 08:04:50;;;;;;;4.07;3.70;;;;;;;21.82;18.09;96809.66;5063796;28;20123;-63
2021/04/08 08:07:26;;;;;;;4.10;3.70;;;;;;;21.78;18.10;96805.84;5063499;28;20078;-64
2021/04/08 08:09:52;;;;;;;4.10;3.50;;;;;;;21.76;18.03;96808.06;5065405;28;20056;-64
2021/04/08 08:12:18;;;;;;;4.75;3.90;;;;;;;21.74;18.04;96804.78;5064323;28;20052;-64
2021/04/08 08:14:44;;;;;;;3.85;3.50;;;;;;;21.71;18.00;96809.97;5065485;28;20040;-63
2021/04/08 08:17:11;;;;;;;4.15;3.60;;;;;;;21.68;18.02;96810.56;5063309;28;20121;-62
2021/04/08 08:19:38;;;;;;;3.78;3.47;;;;;;;21.64;17.97;96810.28;5055237;28;20060;-63
2021/04/08 08:22:04;;;;;;;3.40;3.10;;;;;;;21.61;17.98;96819.03;5063398;28;20064;-65
2021/04/08 08:24:31;;;;;;;3.10;2.90;;;;;;;21.58;18.04;96814.94;5068028;28;20048;-64
2021/04/08 08:26:57;;;;;;;3.65;3.15;;;;;;;21.55;18.10;96820.97;5069385;28;20076;-65
2021/04/08 08:29:30;;;;;;;3.45;3.15;;;;;;;21.51;18.20;96813.63;5083747;28;20060;-63
2021/04/08 08:32:00;;;;;;;3.00;2.78;;;;;;;21.49;18.09;96810.38;5068649;28;20048;-65
2021/04/08 08:34:27;;;;;;;4.10;3.15;;;;;;;21.45;18.17;96813.63;5069237;28;20060;-63
2021/04/08 08:36:59;;;;;;;4.25;3.05;;;;;;;21.43;18.27;96815.81;5065291;28;20049;-62
2021/04/08 08:39:31;;;;;;;4.28;3.03;;;;;;;21.39;18.33;96817.44;5068489;28;20127;-63
2021/04/08 08:41:58;;;;;;;3.67;2.88;;;;;;;21.36;18.21;96822.66;5063260;28;20554;-64
2021/04/08 08:44:23;;;;;;;3.17;2.88;;;;;;;21.32;18.07;96819.66;5068232;28;20048;-61
2021/04/08 08:46:49;;;;;;;2.78;2.58;;;;;;;21.30;18.28;96827.31;5066550;28;20444;-63
2021/04/08 08:49:18;;;;;;;2.72;2.53;;;;;;;21.28;18.40;96820.50;5066182;28;20129;-62
2021/04/08 08:51:44;;;;;;;25.90;4.93;;;;;;;21.24;18.46;96820.22;5065332;28;20098;-63
2021/04/08 08:54:10;;;;;;;4.82;2.90;;;;;;;21.21;18.46;96827.06;5066355;28;20044;-61
2021/04/08 08:56:35;;;;;;;3.22;2.67;;;;;;;21.17;18.46;96825.97;5066941;28;20110;-61
2021/04/08 08:59:01;;;;;;;4.22;2.72;;;;;;;21.14;18.52;96823.78;5067221;28;20040;-63
2021/04/08 09:01:27;;;;;;;6.63;2.33;;;;;;;21.12;18.71;96820.53;5068700;28;20052;-63
2021/04/08 09:03:52;;;;;;;5.18;2.75;;;;;;;21.10;18.60;96817.25;5066717;28;20139;-61
2021/04/08 09:06:21;;;;;;;5.32;3.17;;;;;;;21.09;18.82;96821.09;5067533;28;20353;-62
2021/04/08 09:08:51;;;;;;;4.72;2.47;;;;;;;21.11;18.79;96818.09;5067846;28;20060;-61
2021/04/08 09:11:23;;;;;;;4.72;3.22;;;;;;;21.11;18.55;96821.63;5082933;28;20052;-60
2021/04/08 09:13:51;;;;;;;3.42;2.63;;;;;;;21.11;18.74;96824.34;5067168;28;20045;-62
2021/04/08 09:16:16;;;;;;;2.70;2.42;;;;;;;21.13;18.71;96826.81;5067960;28;20040;-60
2021/04/08 09:18:56;;;;;;;3.00;2.50;;;;;;;21.16;18.64;96823.53;5049956;28;20059;-60
2021/04/08 09:21:21;;;;;;;4.22;2.58;;;;;;;21.18;18.73;96826.78;5067390;28;20129;-62
2021/04/08 09:23:47;;;;;;;8.45;5.20;;;;;;;21.22;18.57;96830.59;5067012;28;20609;-60
2021/04/08 09:26:15;;;;;;;8.13;4.05;;;;;;;21.27;18.55;96833.28;5066998;28;20076;-58
2021/04/08 09:28:41;;;;;;;6.32;3.20;;;;;;;21.31;18.82;96828.91;5049291;28;20554;-62
2021/04/08 09:31:08;;;;;;;26.63;20.35;;;;;;;21.35;18.76;96832.72;5067413;28;20076;-58
2021/04/08 09:33:41;;;;;;;19.50;15.18;;;;;;;21.40;18.91;96834.63;5067980;28;20131;-58
2021/04/08 09:36:22;;;;;;;13.82;11.32;;;;;;;21.44;19.13;96830.28;5064472;28;20048;-61
2021/04/08 09:38:51;;;;;;;13.05;9.63;;;;;;;21.49;19.19;96824.00;5067268;28;20064;-58
2021/04/08 09:41:18;;;;;;;15.10;9.55;;;;;;;21.53;19.46;96831.34;5067506;28;20048;-56
2021/04/08 09:43:44;;;;;;;13.43;9.35;;;;;;;21.59;19.30;96827.50;5067276;28;20072;-61
2021/04/08 09:46:11;;;;;;;10.63;8.23;;;;;;;21.65;19.29;96820.13;5048063;28;20546;-63
2021/04/08 09:48:45;;;;;;;10.98;7.50;;;;;;;21.70;19.44;96814.63;5066379;28;20127;-64
2021/04/08 09:51:28;;;;;;;13.90;8.20;;;;;;;21.78;19.64;96815.97;5066821;28;20467;-63
2021/04/08 09:53:55;;;;;;;11.48;7.18;;;;;;;21.85;19.68;96817.25;5068126;28;20948;-63
2021/04/08 09:56:59;;;;;;;7.97;6.20;;;;;;;21.94;19.50;96811.22;5066582;28;20538;-64
2021/04/08 09:59:27;;;;;;;8.90;7.28;;;;;;;22.04;19.43;96808.44;5067229;28;20139;-65
2021/04/08 10:01:52;;;;;;;8.10;6.63;;;;;;;22.12;19.41;96805.09;5066506;28;20052;-65
2021/04/08 10:04:24;;;;;;;9.23;7.22;;;;;;;22.19;19.35;96802.03;5066606;28;20076;-64
2021/04/08 10:07:05;;;;;;;9.20;6.38;;;;;;;22.28;18.85;96805.03;5067355;28;20177;-62
2021/04/08 10:09:31;;;;;;;7.97;6.13;;;;;;;22.38;18.99;96800.31;5066538;28;20527;-66
2021/04/08 10:11:57;;;;;;;7.38;5.72;;;;;;;22.47;19.03;96800.50;5067480;28;20040;-65
2021/04/08 10:14:30;;;;;;;7.00;5.57;;;;;;;22.58;18.75;96796.59;5066795;28;20596;-64
2021/04/08 10:17:05;;;;;;;6.55;5.10;;;;;;;22.70;18.74;96795.41;5067316;28;20102;-64
2021/04/08 10:19:32;;;;;;;5.72;5.20;;;;;;;22.81;18.66;96788.72;5066403;28;20074;-65
2021/04/08 10:21:57;;;;;;;5.57;4.55;;;;;;;22.92;18.68;96792.16;5067103;28;20059;-63
2021/04/08 10:24:23;;;;;;;5.13;4.65;;;;;;;23.02;18.42;96786.63;5068797;28;20048;-53
2021/04/08 10:26:49;;;;;;;4.70;4.25;;;;;;;23.12;18.27;96794.72;5068622;28;20207;-56
2021/04/08 10:29:14;;;;;;;7.18;5.03;;;;;;;23.23;18.47;96787.22;5070504;28;20168;-60
2021/04/08 10:31:43;;;;;;;22.08;9.48;;;;;;;23.32;18.49;96788.22;5036726;28;20471;-64
2021/04/08 10:34:19;;;;;;;17.98;9.13;;;;;;;23.43;18.42;96794.38;5051205;28;20470;-65
2021/04/08 10:36:53;;;;;;;17.23;7.75;;;;;;;23.53;18.43;96786.06;5066130;28;20101;-65
2021/04/08 10:39:20;;;;;;;11.93;6.73;;;;;;;23.65;18.51;96780.13;5066131;28;20044;-64
2021/04/08 10:42:04;;;;;;;18.25;6.95;;;;;;;23.77;18.53;96787.94;5065784;28;20071;-66
2021/04/08 10:44:35;;;;;;;11.93;5.85;;;;;;;23.87;18.22;96785.06;5065760;28;20140;-65
2021/04/08 10:47:06;;;;;;;9.25;5.95;;;;;;;23.96;18.10;96779.75;5065782;28;20063;-59
2021/04/08 10:49:35;;;;;;;11.70;6.05;;;;;;;24.04;18.01;96779.06;5066054;28;20055;-59
2021/04/08 10:52:08;;;;;;;11.52;6.47;;;;;;;24.12;18.02;96778.41;5065077;28;20056;-64
2021/04/08 10:54:38;;;;;;;10.25;5.05;;;;;;;24.21;18.00;96771.13;5064795;28;20052;-63
2021/04/08 10:57:04;;;;;;;8.40;5.20;;;;;;;24.28;18.36;96773.50;5065869;28;20078;-63
2021/04/08 10:59:30;;;;;;;8.82;5.53;;;;;;;24.35;18.01;96773.94;5065750;28;20048;-65
2021/04/08 11:01:58;;;;;;;9.18;5.38;;;;;;;24.43;18.08;96777.91;5065602;28;20052;-63
2021/04/08 11:04:23;;;;;;;10.80;4.75;;;;;;;24.49;17.69;96771.25;5064390;28;20055;-57
2021/04/08 11:06:50;;;;;;;9.40;4.80;;;;;;;24.54;17.59;96778.59;5065911;28;20754;-56
2021/04/08 11:09:23;;;;;;;10.50;4.63;;;;;;;24.56;17.51;96771.69;5063835;28;20147;-59
2021/04/08 11:11:49;;;;;;;6.97;3.90;;;;;;;24.61;17.47;96768.06;5065739;28;20048;-61
2021/04/08 11:14:27;;;;;;;4.90;4.03;;;;;;;24.60;17.73;96767.25;5065956;28;20044;-64
2021/04/08 11:16:54;;;;;;;8.05;4.18;;;;;;;24.65;17.85;96767.16;5065203;28;20055;-65
2021/04/08 11:19:20;;;;;;;9.73;4.50;;;;;;;24.68;17.65;96763.00;5064373;28;20060;-60
2021/04/08 11:21:45;;;;;;;8.73;3.75;;;;;;;24.72;17.67;96766.75;5064983;28;20060;-65
2021/04/08 11:24:11;;;;;;;7.13;3.80;;;;;;;24.75;17.33;96757.13;5064173;28;20097;-62
2021/04/08 11:26:53;;;;;;;8.93;3.85;;;;;;;24.76;17.39;96758.75;5063989;28;20083;-61
2021/04/08 11:29:22;;;;;;;5.97;3.58;;;;;;;24.79;17.22;96761.72;5061917;28;20498;-64
2021/04/08 11:32:03;;;;;;;6.93;4.05;;;;;;;24.80;17.17;96754.28;5065276;28;20151;-61
2021/04/08 11:34:50;;;;;;;8.18;4.22;;;;;;;24.79;17.53;96752.69;5065726;28;20153;-64